La Place, Illinois
Current Conditions -  °F | °C
As of 2:54 AM on Saturday 29 Nov 2014 (Local Time) from KDEC Reporting Station
Clear Clear  
Wind Chill: 29°   Ceiling: Unl
Heat Index: 38°   Visibility: 10mi
Dew Point: 31°   Wind: 15mph
Humidity: 76%   Direction: 180°S
Pressure: 29.84"   Gusts: NA
Location:  39.8°N, 88.71°W
Report Text: KDEC 290854Z AUTO 18013KT 10SM CLR 03/M01 A2984 RMK AO2 SLP110 T00331006 58016 TSNO
Loading
Personal Weather Stations






























Interactive Weather Map New forecast layout! Learn more

10-Day Weather Forecast

Advertisements
Track Severe Weather on mobile